sensor_id;sensor_type;location;lat;lon;timestamp;temperature;humidity
59025;DHT22;44806;48.008;13.666;2023-01-10T00:00:46;5.30;99.90
59025;DHT22;44806;48.008;13.666;2023-01-10T00:03:13;5.30;99.90
59025;DHT22;44806;48.008;13.666;2023-01-10T00:05:40;5.30;99.90
59025;DHT22;44806;48.008;13.666;2023-01-10T00:08:14;5.30;99.90
59025;DHT22;44806;48.008;13.666;2023-01-10T00:10:41;5.30;99.90
59025;DHT22;44806;48.008;13.666;2023-01-10T00:13:13;5.30;99.90
59025;DHT22;44806;48.008;13.666;2023-01-10T00:15:48;5.30;99.90
59025;DHT22;44806;48.008;13.666;2023-01-10T00:18:15;5.30;99.90
59025;DHT22;44806;48.008;13.666;2023-01-10T00:20:42;5.30;99.90
59025;DHT22;44806;48.008;13.666;2023-01-10T00:23:12;5.20;99.90
59025;DHT22;44806;48.008;13.666;2023-01-10T00:25:39;5.20;99.90
59025;DHT22;44806;48.008;13.666;2023-01-10T00:28:07;5.10;99.90
59025;DHT22;44806;48.008;13.666;2023-01-10T00:30:46;5.10;99.90
59025;DHT22;44806;48.008;13.666;2023-01-10T00:33:15;5.10;99.90
59025;DHT22;44806;48.008;13.666;2023-01-10T00:35:45;5.00;99.90
59025;DHT22;44806;48.008;13.666;2023-01-10T00:38:13;5.00;99.90
59025;DHT22;44806;48.008;13.666;2023-01-10T00:40:41;5.00;99.90
59025;DHT22;44806;48.008;13.666;2023-01-10T00:43:08;5.00;99.90
59025;DHT22;44806;48.008;13.666;2023-01-10T00:45:53;5.00;99.90
59025;DHT22;44806;48.008;13.666;2023-01-10T00:48:20;5.10;99.90
59025;DHT22;44806;48.008;13.666;2023-01-10T00:50:47;5.10;99.90
59025;DHT22;44806;48.008;13.666;2023-01-10T00:53:15;5.10;99.90
59025;DHT22;44806;48.008;13.666;2023-01-10T00:55:42;5.20;99.90
59025;DHT22;44806;48.008;13.666;2023-01-10T00:58:09;5.10;99.90
59025;DHT22;44806;48.008;13.666;2023-01-10T01:00:37;5.10;99.90
59025;DHT22;44806;48.008;13.666;2023-01-10T01:03:04;5.10;99.90
59025;DHT22;44806;48.008;13.666;2023-01-10T01:05:38;5.20;99.90
59025;DHT22;44806;48.008;13.666;2023-01-10T01:08:05;5.10;99.90
59025;DHT22;44806;48.008;13.666;2023-01-10T01:10:33;5.10;99.90
59025;DHT22;44806;48.008;13.666;2023-01-10T01:13:05;5.10;99.90
59025;DHT22;44806;48.008;13.666;2023-01-10T01:15:33;5.10;99.90
59025;DHT22;44806;48.008;13.666;2023-01-10T01:18:00;5.20;99.90
59025;DHT22;44806;48.008;13.666;2023-01-10T01:20:28;5.20;99.90
59025;DHT22;44806;48.008;13.666;2023-01-10T01:22:55;5.20;99.90
59025;DHT22;44806;48.008;13.666;2023-01-10T01:25:22;5.20;99.90
59025;DHT22;44806;48.008;13.666;2023-01-10T01:27:50;5.20;99.90
59025;DHT22;44806;48.008;13.666;2023-01-10T01:30:17;5.10;99.90
59025;DHT22;44806;48.008;13.666;2023-01-10T01:32:44;5.10;99.90
59025;DHT22;44806;48.008;13.666;2023-01-10T01:35:13;5.10;99.90
59025;DHT22;44806;48.008;13.666;2023-01-10T01:37:41;5.10;99.90
59025;DHT22;44806;48.008;13.666;2023-01-10T01:40:10;5.10;99.90
59025;DHT22;44806;48.008;13.666;2023-01-10T01:42:38;4.90;99.90
59025;DHT22;44806;48.008;13.666;2023-01-10T01:48:23;4.90;99.90
59025;DHT22;44806;48.008;13.666;2023-01-10T01:50:56;4.90;99.90
59025;DHT22;44806;48.008;13.666;2023-01-10T01:53:34;4.90;99.90
59025;DHT22;44806;48.008;13.666;2023-01-10T01:56:06;4.90;99.90
59025;DHT22;44806;48.008;13.666;2023-01-10T01:58:38;4.90;99.90
59025;DHT22;44806;48.008;13.666;2023-01-10T02:01:07;4.90;99.90
59025;DHT22;44806;48.008;13.666;2023-01-10T02:03:37;4.90;99.90
59025;DHT22;44806;48.008;13.666;2023-01-10T02:06:05;4.90;99.90
59025;DHT22;44806;48.008;13.666;2023-01-10T02:08:33;4.90;99.90
59025;DHT22;44806;48.008;13.666;2023-01-10T02:11:04;4.90;99.90
59025;DHT22;44806;48.008;13.666;2023-01-10T02:13:34;4.90;99.90
59025;DHT22;44806;48.008;13.666;2023-01-10T02:16:04;5.00;99.90
59025;DHT22;44806;48.008;13.666;2023-01-10T02:18:31;5.00;99.90
59025;DHT22;44806;48.008;13.666;2023-01-10T02:27:13;5.10;99.90
59025;DHT22;44806;48.008;13.666;2023-01-10T02:30:23;5.10;99.90
59025;DHT22;44806;48.008;13.666;2023-01-10T02:32:59;5.10;99.90
59025;DHT22;44806;48.008;13.666;2023-01-10T02:35:51;5.10;99.90
59025;DHT22;44806;48.008;13.666;2023-01-10T02:38:28;5.00;99.90
59025;DHT22;44806;48.008;13.666;2023-01-10T02:41:02;5.00;99.90
59025;DHT22;44806;48.008;13.666;2023-01-10T02:43:33;4.90;99.90
59025;DHT22;44806;48.008;13.666;2023-01-10T02:46:04;4.90;99.90
59025;DHT22;44806;48.008;13.666;2023-01-10T02:48:34;5.00;99.90
59025;DHT22;44806;48.008;13.666;2023-01-10T02:51:03;4.90;99.90
59025;DHT22;44806;48.008;13.666;2023-01-10T02:53:32;4.90;99.90
59025;DHT22;44806;48.008;13.666;2023-01-10T03:02:26;5.00;99.90
59025;DHT22;44806;48.008;13.666;2023-01-10T03:05:03;5.00;99.90
59025;DHT22;44806;48.008;13.666;2023-01-10T03:07:38;5.00;99.90
59025;DHT22;44806;48.008;13.666;2023-01-10T03:10:12;5.00;99.90
59025;DHT22;44806;48.008;13.666;2023-01-10T03:12:43;5.00;99.90
59025;DHT22;44806;48.008;13.666;2023-01-10T03:15:16;5.00;99.90
59025;DHT22;44806;48.008;13.666;2023-01-10T03:17:48;5.00;99.90
59025;DHT22;44806;48.008;13.666;2023-01-10T03:20:18;5.00;99.90
59025;DHT22;44806;48.008;13.666;2023-01-10T03:22:46;4.90;99.90
59025;DHT22;44806;48.008;13.666;2023-01-10T03:25:15;4.90;99.90
59025;DHT22;44806;48.008;13.666;2023-01-10T03:27:50;4.90;99.90
59025;DHT22;44806;48.008;13.666;2023-01-10T03:30:24;4.80;99.90
59025;DHT22;44806;48.008;13.666;2023-01-10T03:32:53;4.90;99.90
59025;DHT22;44806;48.008;13.666;2023-01-10T03:35:25;4.90;99.90
59025;DHT22;44806;48.008;13.666;2023-01-10T03:37:56;4.90;99.90
59025;DHT22;44806;48.008;13.666;2023-01-10T03:40:29;4.90;99.90
59025;DHT22;44806;48.008;13.666;2023-01-10T03:43:01;4.90;99.90
59025;DHT22;44806;48.008;13.666;2023-01-10T03:45:52;4.90;99.90
59025;DHT22;44806;48.008;13.666;2023-01-10T03:48:22;4.90;99.90
59025;DHT22;44806;48.008;13.666;2023-01-10T03:50:54;4.90;99.90
59025;DHT22;44806;48.008;13.666;2023-01-10T03:53:22;4.90;99.90
59025;DHT22;44806;48.008;13.666;2023-01-10T03:55:49;4.90;99.90
59025;DHT22;44806;48.008;13.666;2023-01-10T03:58:16;4.90;99.90
59025;DHT22;44806;48.008;13.666;2023-01-10T04:00:46;5.10;99.90
59025;DHT22;44806;48.008;13.666;2023-01-10T04:03:14;5.00;99.90
59025;DHT22;44806;48.008;13.666;2023-01-10T04:05:41;5.00;99.90
59025;DHT22;44806;48.008;13.666;2023-01-10T04:08:10;5.00;99.90
59025;DHT22;44806;48.008;13.666;2023-01-10T04:10:37;5.00;99.90
59025;DHT22;44806;48.008;13.666;2023-01-10T04:13:04;5.00;99.90
59025;DHT22;44806;48.008;13.666;2023-01-10T04:15:32;5.00;99.90
59025;DHT22;44806;48.008;13.666;2023-01-10T04:17:59;5.00;99.90
59025;DHT22;44806;48.008;13.666;2023-01-10T04:20:25;5.10;99.90
59025;DHT22;44806;48.008;13.666;2023-01-10T04:22:52;5.10;99.90
59025;DHT22;44806;48.008;13.666;2023-01-10T04:25:21;5.10;99.90
59025;DHT22;44806;48.008;13.666;2023-01-10T04:27:48;5.20;99.90
59025;DHT22;44806;48.008;13.666;2023-01-10T04:30:16;5.10;99.90
59025;DHT22;44806;48.008;13.666;2023-01-10T04:32:43;5.10;99.90
59025;DHT22;44806;48.008;13.666;2023-01-10T04:35:10;5.20;99.90
59025;DHT22;44806;48.008;13.666;2023-01-10T04:37:37;5.20;99.90
59025;DHT22;44806;48.008;13.666;2023-01-10T04:40:05;5.10;99.90
59025;DHT22;44806;48.008;13.666;2023-01-10T04:42:34;5.20;99.90
59025;DHT22;44806;48.008;13.666;2023-01-10T04:45:01;5.20;99.90
59025;DHT22;44806;48.008;13.666;2023-01-10T04:47:28;5.30;99.90
59025;DHT22;44806;48.008;13.666;2023-01-10T04:49:55;5.20;99.90
59025;DHT22;44806;48.008;13.666;2023-01-10T04:52:21;5.20;99.90
59025;DHT22;44806;48.008;13.666;2023-01-10T04:54:52;5.20;99.90
59025;DHT22;44806;48.008;13.666;2023-01-10T04:57:19;5.20;99.90
59025;DHT22;44806;48.008;13.666;2023-01-10T04:59:47;5.20;99.90
59025;DHT22;44806;48.008;13.666;2023-01-10T05:02:15;5.20;99.90
59025;DHT22;44806;48.008;13.666;2023-01-10T05:04:42;5.10;99.90
59025;DHT22;44806;48.008;13.666;2023-01-10T05:07:09;5.20;99.90
59025;DHT22;44806;48.008;13.666;2023-01-10T05:09:36;5.20;99.90
59025;DHT22;44806;48.008;13.666;2023-01-10T05:12:05;5.20;99.90
59025;DHT22;44806;48.008;13.666;2023-01-10T05:14:32;5.20;99.90
59025;DHT22;44806;48.008;13.666;2023-01-10T05:17:01;5.10;99.90
59025;DHT22;44806;48.008;13.666;2023-01-10T05:19:28;5.10;99.90
59025;DHT22;44806;48.008;13.666;2023-01-10T05:21:55;5.20;99.90
59025;DHT22;44806;48.008;13.666;2023-01-10T05:24:22;5.20;99.90
59025;DHT22;44806;48.008;13.666;2023-01-10T05:26:48;5.20;99.90
59025;DHT22;44806;48.008;13.666;2023-01-10T05:29:15;5.20;99.90
59025;DHT22;44806;48.008;13.666;2023-01-10T05:31:42;5.20;99.90
59025;DHT22;44806;48.008;13.666;2023-01-10T05:34:12;5.20;99.90
59025;DHT22;44806;48.008;13.666;2023-01-10T05:36:39;5.30;99.90
59025;DHT22;44806;48.008;13.666;2023-01-10T05:39:06;5.30;99.90
59025;DHT22;44806;48.008;13.666;2023-01-10T05:41:33;5.30;99.90
59025;DHT22;44806;48.008;13.666;2023-01-10T05:44:00;5.30;99.90
59025;DHT22;44806;48.008;13.666;2023-01-10T05:46:27;5.30;99.90
59025;DHT22;44806;48.008;13.666;2023-01-10T05:48:54;5.30;99.90
59025;DHT22;44806;48.008;13.666;2023-01-10T05:51:22;5.30;99.90
59025;DHT22;44806;48.008;13.666;2023-01-10T05:53:49;5.30;99.90
59025;DHT22;44806;48.008;13.666;2023-01-10T05:56:16;5.30;99.90
59025;DHT22;44806;48.008;13.666;2023-01-10T05:58:43;5.30;99.90
59025;DHT22;44806;48.008;13.666;2023-01-10T06:01:10;5.30;99.90
59025;DHT22;44806;48.008;13.666;2023-01-10T06:03:37;5.30;99.90
59025;DHT22;44806;48.008;13.666;2023-01-10T06:06:05;5.30;99.90
59025;DHT22;44806;48.008;13.666;2023-01-10T06:08:34;5.30;99.90
59025;DHT22;44806;48.008;13.666;2023-01-10T06:11:01;5.20;99.90
59025;DHT22;44806;48.008;13.666;2023-01-10T06:13:28;5.20;99.90
59025;DHT22;44806;48.008;13.666;2023-01-10T06:15:55;5.10;99.90
59025;DHT22;44806;48.008;13.666;2023-01-10T06:18:22;5.10;99.90
59025;DHT22;44806;48.008;13.666;2023-01-10T06:20:49;5.10;99.90
59025;DHT22;44806;48.008;13.666;2023-01-10T06:23:16;5.00;99.90
59025;DHT22;44806;48.008;13.666;2023-01-10T06:25:44;5.00;99.90
59025;DHT22;44806;48.008;13.666;2023-01-10T06:28:13;5.00;99.90
59025;DHT22;44806;48.008;13.666;2023-01-10T06:30:41;5.00;99.90
59025;DHT22;44806;48.008;13.666;2023-01-10T06:33:09;5.00;99.90
59025;DHT22;44806;48.008;13.666;2023-01-10T06:35:36;5.00;99.90
59025;DHT22;44806;48.008;13.666;2023-01-10T06:38:03;5.00;99.90
59025;DHT22;44806;48.008;13.666;2023-01-10T06:40:30;5.00;99.90
59025;DHT22;44806;48.008;13.666;2023-01-10T06:42:59;4.90;99.90
59025;DHT22;44806;48.008;13.666;2023-01-10T06:45:26;4.90;99.90
59025;DHT22;44806;48.008;13.666;2023-01-10T06:47:53;4.90;99.90
59025;DHT22;44806;48.008;13.666;2023-01-10T06:50:20;4.90;99.90
59025;DHT22;44806;48.008;13.666;2023-01-10T06:52:54;4.90;99.90
59025;DHT22;44806;48.008;13.666;2023-01-10T06:55:21;4.90;99.90
59025;DHT22;44806;48.008;13.666;2023-01-10T06:57:53;4.90;99.90
59025;DHT22;44806;48.008;13.666;2023-01-10T07:00:22;4.90;99.90
59025;DHT22;44806;48.008;13.666;2023-01-10T07:02:50;5.00;99.90
59025;DHT22;44806;48.008;13.666;2023-01-10T07:05:19;4.90;99.90
59025;DHT22;44806;48.008;13.666;2023-01-10T07:07:46;4.90;99.90
59025;DHT22;44806;48.008;13.666;2023-01-10T07:10:13;4.90;99.90
59025;DHT22;44806;48.008;13.666;2023-01-10T07:12:40;5.00;99.90
59025;DHT22;44806;48.008;13.666;2023-01-10T07:15:08;4.90;99.90
59025;DHT22;44806;48.008;13.666;2023-01-10T07:17:36;5.00;99.90
59025;DHT22;44806;48.008;13.666;2023-01-10T07:20:04;5.00;99.90
59025;DHT22;44806;48.008;13.666;2023-01-10T07:22:31;5.00;99.90
59025;DHT22;44806;48.008;13.666;2023-01-10T07:24:58;5.00;99.90
59025;DHT22;44806;48.008;13.666;2023-01-10T07:27:25;5.00;99.90
59025;DHT22;44806;48.008;13.666;2023-01-10T07:29:52;5.10;99.90
59025;DHT22;44806;48.008;13.666;2023-01-10T07:32:19;5.10;99.90
59025;DHT22;44806;48.008;13.666;2023-01-10T07:34:47;5.10;99.90
59025;DHT22;44806;48.008;13.666;2023-01-10T07:37:16;5.10;99.90
59025;DHT22;44806;48.008;13.666;2023-01-10T07:39:43;5.10;99.90
59025;DHT22;44806;48.008;13.666;2023-01-10T07:42:11;5.10;99.90
59025;DHT22;44806;48.008;13.666;2023-01-10T07:44:38;5.20;99.90
59025;DHT22;44806;48.008;13.666;2023-01-10T07:47:04;5.20;99.90
59025;DHT22;44806;48.008;13.666;2023-01-10T07:49:31;5.20;99.90
59025;DHT22;44806;48.008;13.666;2023-01-10T07:52:00;5.20;99.90
59025;DHT22;44806;48.008;13.666;2023-01-10T07:54:27;5.20;99.90
59025;DHT22;44806;48.008;13.666;2023-01-10T07:56:54;5.10;99.90
59025;DHT22;44806;48.008;13.666;2023-01-10T07:59:21;5.20;99.90
59025;DHT22;44806;48.008;13.666;2023-01-10T08:01:48;5.20;99.90
59025;DHT22;44806;48.008;13.666;2023-01-10T08:04:15;5.20;99.90
59025;DHT22;44806;48.008;13.666;2023-01-10T08:06:42;5.20;99.90
59025;DHT22;44806;48.008;13.666;2023-01-10T08:09:10;5.10;99.90
59025;DHT22;44806;48.008;13.666;2023-01-10T08:11:38;5.10;99.90
59025;DHT22;44806;48.008;13.666;2023-01-10T08:14:05;5.20;99.90
59025;DHT22;44806;48.008;13.666;2023-01-10T08:16:32;5.20;99.90
59025;DHT22;44806;48.008;13.666;2023-01-10T08:18:59;5.20;99.90
59025;DHT22;44806;48.008;13.666;2023-01-10T08:21:25;5.20;99.90
59025;DHT22;44806;48.008;13.666;2023-01-10T08:23:56;5.20;99.90
59025;DHT22;44806;48.008;13.666;2023-01-10T08:26:24;5.20;99.90
59025;DHT22;44806;48.008;13.666;2023-01-10T08:28:51;5.30;99.90
59025;DHT22;44806;48.008;13.666;2023-01-10T08:31:18;5.30;99.90
59025;DHT22;44806;48.008;13.666;2023-01-10T08:33:45;5.30;99.90
59025;DHT22;44806;48.008;13.666;2023-01-10T08:36:16;5.30;99.90
59025;DHT22;44806;48.008;13.666;2023-01-10T08:38:43;5.30;99.90
59025;DHT22;44806;48.008;13.666;2023-01-10T08:41:11;5.40;99.90
59025;DHT22;44806;48.008;13.666;2023-01-10T08:43:39;5.40;99.90
59025;DHT22;44806;48.008;13.666;2023-01-10T08:46:06;5.30;99.90
59025;DHT22;44806;48.008;13.666;2023-01-10T08:48:33;5.30;99.90
59025;DHT22;44806;48.008;13.666;2023-01-10T08:51:05;5.40;99.90
59025;DHT22;44806;48.008;13.666;2023-01-10T08:53:32;5.40;99.90
59025;DHT22;44806;48.008;13.666;2023-01-10T08:55:59;5.40;99.90
59025;DHT22;44806;48.008;13.666;2023-01-10T08:58:26;5.40;99.90
59025;DHT22;44806;48.008;13.666;2023-01-10T09:00:54;5.40;99.90
59025;DHT22;44806;48.008;13.666;2023-01-10T09:03:21;5.40;99.90
59025;DHT22;44806;48.008;13.666;2023-01-10T09:05:48;5.40;99.90
59025;DHT22;44806;48.008;13.666;2023-01-10T09:08:15;5.30;99.90
59025;DHT22;44806;48.008;13.666;2023-01-10T09:10:42;5.40;99.90
59025;DHT22;44806;48.008;13.666;2023-01-10T09:13:09;5.30;99.90
59025;DHT22;44806;48.008;13.666;2023-01-10T09:15:36;5.30;99.90
59025;DHT22;44806;48.008;13.666;2023-01-10T09:18:06;5.20;99.90
59025;DHT22;44806;48.008;13.666;2023-01-10T09:20:35;5.10;99.90
59025;DHT22;44806;48.008;13.666;2023-01-10T09:23:06;5.10;99.90
59025;DHT22;44806;48.008;13.666;2023-01-10T09:25:34;5.10;99.90
59025;DHT22;44806;48.008;13.666;2023-01-10T09:28:02;5.10;99.90
59025;DHT22;44806;48.008;13.666;2023-01-10T09:30:31;5.10;99.90
59025;DHT22;44806;48.008;13.666;2023-01-10T09:32:58;5.10;99.90
59025;DHT22;44806;48.008;13.666;2023-01-10T09:35:28;5.00;99.90
59025;DHT22;44806;48.008;13.666;2023-01-10T09:37:57;5.00;99.90
59025;DHT22;44806;48.008;13.666;2023-01-10T09:40:32;5.10;99.90
59025;DHT22;44806;48.008;13.666;2023-01-10T09:43:09;5.10;99.90
59025;DHT22;44806;48.008;13.666;2023-01-10T09:45:47;5.00;99.90
59025;DHT22;44806;48.008;13.666;2023-01-10T09:48:22;4.90;99.90
59025;DHT22;44806;48.008;13.666;2023-01-10T09:51:03;5.00;99.90
59025;DHT22;44806;48.008;13.666;2023-01-10T09:53:37;4.90;99.90
59025;DHT22;44806;48.008;13.666;2023-01-10T09:56:06;5.00;99.90
59025;DHT22;44806;48.008;13.666;2023-01-10T09:58:35;5.00;99.90
59025;DHT22;44806;48.008;13.666;2023-01-10T10:01:05;5.00;99.90
59025;DHT22;44806;48.008;13.666;2023-01-10T10:03:40;5.00;99.90
59025;DHT22;44806;48.008;13.666;2023-01-10T10:06:12;5.00;99.90
59025;DHT22;44806;48.008;13.666;2023-01-10T10:08:40;5.00;99.90
59025;DHT22;44806;48.008;13.666;2023-01-10T10:11:30;5.00;99.90
59025;DHT22;44806;48.008;13.666;2023-01-10T10:14:02;5.00;99.90
59025;DHT22;44806;48.008;13.666;2023-01-10T10:16:40;5.00;99.90
59025;DHT22;44806;48.008;13.666;2023-01-10T10:19:13;5.10;99.90
59025;DHT22;44806;48.008;13.666;2023-01-10T10:21:52;5.10;99.90
59025;DHT22;44806;48.008;13.666;2023-01-10T10:24:32;5.10;99.90
59025;DHT22;44806;48.008;13.666;2023-01-10T10:27:08;5.10;99.90
59025;DHT22;44806;48.008;13.666;2023-01-10T10:35:25;5.20;99.90
59025;DHT22;44806;48.008;13.666;2023-01-10T10:37:57;5.20;99.90
59025;DHT22;44806;48.008;13.666;2023-01-10T10:40:28;5.20;99.90
59025;DHT22;44806;48.008;13.666;2023-01-10T10:43:01;5.30;99.90
59025;DHT22;44806;48.008;13.666;2023-01-10T10:45:39;5.30;99.90
59025;DHT22;44806;48.008;13.666;2023-01-10T10:48:12;5.40;99.90
59025;DHT22;44806;48.008;13.666;2023-01-10T10:50:48;5.40;99.90
59025;DHT22;44806;48.008;13.666;2023-01-10T10:53:17;5.30;99.90
59025;DHT22;44806;48.008;13.666;2023-01-10T10:55:45;5.40;99.90
59025;DHT22;44806;48.008;13.666;2023-01-10T10:58:12;5.40;99.90
59025;DHT22;44806;48.008;13.666;2023-01-10T11:00:43;5.40;99.90
59025;DHT22;44806;48.008;13.666;2023-01-10T11:03:26;5.40;99.90
59025;DHT22;44806;48.008;13.666;2023-01-10T11:05:54;5.30;99.90
59025;DHT22;44806;48.008;13.666;2023-01-10T11:08:23;5.30;99.90
59025;DHT22;44806;48.008;13.666;2023-01-10T11:10:53;5.30;99.90
59025;DHT22;44806;48.008;13.666;2023-01-10T11:13:30;5.30;99.90
59025;DHT22;44806;48.008;13.666;2023-01-10T11:16:04;5.30;99.90
59025;DHT22;44806;48.008;13.666;2023-01-10T11:18:34;5.40;99.90
59025;DHT22;44806;48.008;13.666;2023-01-10T11:21:05;5.40;99.90
59025;DHT22;44806;48.008;13.666;2023-01-10T11:23:40;5.40;99.90
59025;DHT22;44806;48.008;13.666;2023-01-10T11:26:21;5.50;99.90
59025;DHT22;44806;48.008;13.666;2023-01-10T11:28:50;5.50;99.90
59025;DHT22;44806;48.008;13.666;2023-01-10T11:31:25;5.60;99.90
59025;DHT22;44806;48.008;13.666;2023-01-10T11:33:53;5.70;99.90
59025;DHT22;44806;48.008;13.666;2023-01-10T11:36:21;5.60;99.90
59025;DHT22;44806;48.008;13.666;2023-01-10T11:38:59;5.70;99.90
59025;DHT22;44806;48.008;13.666;2023-01-10T11:41:27;5.70;99.90
59025;DHT22;44806;48.008;13.666;2023-01-10T11:44:15;5.70;99.90
59025;DHT22;44806;48.008;13.666;2023-01-10T11:46:43;5.70;99.90
59025;DHT22;44806;48.008;13.666;2023-01-10T11:49:12;5.70;99.90
59025;DHT22;44806;48.008;13.666;2023-01-10T11:51:46;5.60;99.90
59025;DHT22;44806;48.008;13.666;2023-01-10T11:54:19;5.70;99.90
59025;DHT22;44806;48.008;13.666;2023-01-10T11:56:55;5.80;99.90
59025;DHT22;44806;48.008;13.666;2023-01-10T11:59:23;5.80;99.90
59025;DHT22;44806;48.008;13.666;2023-01-10T12:01:55;5.80;99.90
59025;DHT22;44806;48.008;13.666;2023-01-10T12:04:27;5.90;99.90
59025;DHT22;44806;48.008;13.666;2023-01-10T12:07:00;5.80;99.90
59025;DHT22;44806;48.008;13.666;2023-01-10T12:09:35;5.80;99.90
59025;DHT22;44806;48.008;13.666;2023-01-10T12:12:10;5.80;99.90
59025;DHT22;44806;48.008;13.666;2023-01-10T12:14:39;5.80;99.90
59025;DHT22;44806;48.008;13.666;2023-01-10T12:17:10;5.90;99.90
59025;DHT22;44806;48.008;13.666;2023-01-10T12:19:37;6.00;99.90
59025;DHT22;44806;48.008;13.666;2023-01-10T12:22:05;6.00;99.90
59025;DHT22;44806;48.008;13.666;2023-01-10T12:24:37;6.00;99.90
59025;DHT22;44806;48.008;13.666;2023-01-10T12:27:12;6.00;99.90
59025;DHT22;44806;48.008;13.666;2023-01-10T12:29:42;5.90;99.90
59025;DHT22;44806;48.008;13.666;2023-01-10T12:32:15;5.90;99.90
59025;DHT22;44806;48.008;13.666;2023-01-10T12:34:47;6.00;99.90
59025;DHT22;44806;48.008;13.666;2023-01-10T12:37:19;5.90;99.90
59025;DHT22;44806;48.008;13.666;2023-01-10T12:39:52;5.90;99.90
59025;DHT22;44806;48.008;13.666;2023-01-10T12:42:26;5.80;99.90
59025;DHT22;44806;48.008;13.666;2023-01-10T12:45:16;5.90;99.90
59025;DHT22;44806;48.008;13.666;2023-01-10T12:47:58;5.90;99.90
59025;DHT22;44806;48.008;13.666;2023-01-10T12:50:30;5.90;99.90
59025;DHT22;44806;48.008;13.666;2023-01-10T12:53:02;5.80;99.90
59025;DHT22;44806;48.008;13.666;2023-01-10T12:55:36;5.90;99.90
59025;DHT22;44806;48.008;13.666;2023-01-10T12:58:08;5.90;99.90
59025;DHT22;44806;48.008;13.666;2023-01-10T13:00:41;5.90;99.90
59025;DHT22;44806;48.008;13.666;2023-01-10T13:03:12;5.90;99.90
59025;DHT22;44806;48.008;13.666;2023-01-10T13:05:41;6.00;99.90
59025;DHT22;44806;48.008;13.666;2023-01-10T13:08:11;6.00;99.90
59025;DHT22;44806;48.008;13.666;2023-01-10T13:10:43;6.00;99.90
59025;DHT22;44806;48.008;13.666;2023-01-10T13:13:15;6.10;99.90
59025;DHT22;44806;48.008;13.666;2023-01-10T13:15:50;6.00;99.90
59025;DHT22;44806;48.008;13.666;2023-01-10T13:18:23;5.90;99.90
59025;DHT22;44806;48.008;13.666;2023-01-10T13:21:04;5.90;99.90
59025;DHT22;44806;48.008;13.666;2023-01-10T13:23:35;6.10;99.90
59025;DHT22;44806;48.008;13.666;2023-01-10T13:26:07;6.10;99.90
59025;DHT22;44806;48.008;13.666;2023-01-10T13:28:37;6.10;99.90
59025;DHT22;44806;48.008;13.666;2023-01-10T13:31:07;6.00;99.90
59025;DHT22;44806;48.008;13.666;2023-01-10T13:33:51;6.00;99.90
59025;DHT22;44806;48.008;13.666;2023-01-10T13:36:20;6.00;99.90
59025;DHT22;44806;48.008;13.666;2023-01-10T13:38:50;6.00;99.90
59025;DHT22;44806;48.008;13.666;2023-01-10T13:41:19;6.00;99.90
59025;DHT22;44806;48.008;13.666;2023-01-10T13:44:16;6.00;99.90
59025;DHT22;44806;48.008;13.666;2023-01-10T13:46:47;6.00;99.90
59025;DHT22;44806;48.008;13.666;2023-01-10T13:49:41;5.90;99.90
59025;DHT22;44806;48.008;13.666;2023-01-10T13:52:38;6.00;99.90
59025;DHT22;44806;48.008;13.666;2023-01-10T13:55:27;6.00;99.90
59025;DHT22;44806;48.008;13.666;2023-01-10T13:57:58;6.00;99.90
59025;DHT22;44806;48.008;13.666;2023-01-10T14:00:49;5.90;99.90
59025;DHT22;44806;48.008;13.666;2023-01-10T14:03:48;5.90;99.90
59025;DHT22;44806;48.008;13.666;2023-01-10T14:06:37;5.90;99.90
59025;DHT22;44806;48.008;13.666;2023-01-10T14:09:29;5.90;99.90
59025;DHT22;44806;48.008;13.666;2023-01-10T14:11:58;5.90;99.90
59025;DHT22;44806;48.008;13.666;2023-01-10T14:14:33;5.80;99.90
59025;DHT22;44806;48.008;13.666;2023-01-10T14:17:14;5.80;99.90
59025;DHT22;44806;48.008;13.666;2023-01-10T14:19:46;5.80;99.90
59025;DHT22;44806;48.008;13.666;2023-01-10T14:22:26;5.80;99.90
59025;DHT22;44806;48.008;13.666;2023-01-10T14:24:54;5.80;99.90
59025;DHT22;44806;48.008;13.666;2023-01-10T14:27:21;5.80;99.90
59025;DHT22;44806;48.008;13.666;2023-01-10T14:29:53;5.80;99.90
59025;DHT22;44806;48.008;13.666;2023-01-10T14:32:30;5.80;99.90
59025;DHT22;44806;48.008;13.666;2023-01-10T14:35:01;5.80;99.90
59025;DHT22;44806;48.008;13.666;2023-01-10T14:37:32;5.90;99.90
59025;DHT22;44806;48.008;13.666;2023-01-10T14:40:05;5.90;99.90
59025;DHT22;44806;48.008;13.666;2023-01-10T14:42:36;5.80;99.90
59025;DHT22;44806;48.008;13.666;2023-01-10T14:45:16;5.80;99.90
59025;DHT22;44806;48.008;13.666;2023-01-10T14:47:45;5.70;99.90
59025;DHT22;44806;48.008;13.666;2023-01-10T14:50:25;5.70;99.90
59025;DHT22;44806;48.008;13.666;2023-01-10T14:52:54;5.70;99.90
59025;DHT22;44806;48.008;13.666;2023-01-10T14:55:22;5.70;99.90
59025;DHT22;44806;48.008;13.666;2023-01-10T14:57:54;5.70;99.90
59025;DHT22;44806;48.008;13.666;2023-01-10T15:00:27;5.80;99.90
59025;DHT22;44806;48.008;13.666;2023-01-10T15:02:55;5.70;99.90
59025;DHT22;44806;48.008;13.666;2023-01-10T15:05:28;5.70;99.90
59025;DHT22;44806;48.008;13.666;2023-01-10T15:08:18;5.70;99.90
59025;DHT22;44806;48.008;13.666;2023-01-10T15:10:47;5.60;99.90
59025;DHT22;44806;48.008;13.666;2023-01-10T15:13:17;5.70;99.90
59025;DHT22;44806;48.008;13.666;2023-01-10T15:15:47;5.70;99.90
59025;DHT22;44806;48.008;13.666;2023-01-10T15:18:29;5.60;99.90
59025;DHT22;44806;48.008;13.666;2023-01-10T15:20:59;5.60;99.90
59025;DHT22;44806;48.008;13.666;2023-01-10T15:23:33;5.50;99.90
59025;DHT22;44806;48.008;13.666;2023-01-10T15:26:02;5.50;99.90
59025;DHT22;44806;48.008;13.666;2023-01-10T15:28:30;5.40;99.90
59025;DHT22;44806;48.008;13.666;2023-01-10T15:31:02;5.40;99.90
59025;DHT22;44806;48.008;13.666;2023-01-10T15:33:31;5.40;99.90
59025;DHT22;44806;48.008;13.666;2023-01-10T15:36:04;5.50;99.90
59025;DHT22;44806;48.008;13.666;2023-01-10T15:38:35;5.40;99.90
59025;DHT22;44806;48.008;13.666;2023-01-10T15:41:04;5.40;99.90
59025;DHT22;44806;48.008;13.666;2023-01-10T15:43:35;5.40;99.90
59025;DHT22;44806;48.008;13.666;2023-01-10T15:46:04;5.40;99.90
59025;DHT22;44806;48.008;13.666;2023-01-10T15:48:33;5.40;99.90
59025;DHT22;44806;48.008;13.666;2023-01-10T15:51:02;5.40;99.90
59025;DHT22;44806;48.008;13.666;2023-01-10T15:53:51;5.40;99.90
59025;DHT22;44806;48.008;13.666;2023-01-10T15:56:23;5.40;99.90
59025;DHT22;44806;48.008;13.666;2023-01-10T15:58:51;5.40;99.90
59025;DHT22;44806;48.008;13.666;2023-01-10T16:01:20;5.40;99.90
59025;DHT22;44806;48.008;13.666;2023-01-10T16:03:50;5.30;99.90
59025;DHT22;44806;48.008;13.666;2023-01-10T16:06:23;5.30;99.90
59025;DHT22;44806;48.008;13.666;2023-01-10T16:08:53;5.30;99.90
59025;DHT22;44806;48.008;13.666;2023-01-10T16:11:23;5.30;99.90
59025;DHT22;44806;48.008;13.666;2023-01-10T16:14:09;5.30;99.90